sensor_id;sensor_type;location;lat;lon;timestamp;P1;durP1;ratioP1;P2;durP2;ratioP2
23474;SDS011;11910;52.086;21.066;2022-09-01T00:01:42;3.55;;;1.15;;
23474;SDS011;11910;52.086;21.066;2022-09-01T00:04:09;2.28;;;1.02;;
23474;SDS011;11910;52.086;21.066;2022-09-01T00:06:37;2.65;;;0.98;;
23474;SDS011;11910;52.086;21.066;2022-09-01T00:09:05;2.35;;;1.10;;
23474;SDS011;11910;52.086;21.066;2022-09-01T00:11:33;2.10;;;1.20;;
23474;SDS011;11910;52.086;21.066;2022-09-01T00:14:01;2.25;;;1.20;;
23474;SDS011;11910;52.086;21.066;2022-09-01T00:16:28;2.00;;;1.10;;
23474;SDS011;11910;52.086;21.066;2022-09-01T00:18:54;2.15;;;1.10;;
23474;SDS011;11910;52.086;21.066;2022-09-01T00:21:22;2.83;;;1.30;;
23474;SDS011;11910;52.086;21.066;2022-09-01T00:23:49;3.83;;;1.23;;
23474;SDS011;11910;52.086;21.066;2022-09-01T00:26:15;1.70;;;1.17;;
23474;SDS011;11910;52.086;21.066;2022-09-01T00:28:41;1.77;;;1.00;;
23474;SDS011;11910;52.086;21.066;2022-09-01T00:31:07;3.60;;;1.10;;
23474;SDS011;11910;52.086;21.066;2022-09-01T00:33:35;1.98;;;1.10;;
23474;SDS011;11910;52.086;21.066;2022-09-01T00:36:01;2.78;;;1.00;;
23474;SDS011;11910;52.086;21.066;2022-09-01T00:38:28;1.70;;;1.05;;
23474;SDS011;11910;52.086;21.066;2022-09-01T00:40:53;4.78;;;1.00;;
23474;SDS011;11910;52.086;21.066;2022-09-01T00:43:20;1.83;;;0.90;;
23474;SDS011;11910;52.086;21.066;2022-09-01T00:46:00;1.73;;;0.90;;
23474;SDS011;11910;52.086;21.066;2022-09-01T00:48:27;3.10;;;1.20;;
23474;SDS011;11910;52.086;21.066;2022-09-01T00:50:52;1.83;;;1.05;;
23474;SDS011;11910;52.086;21.066;2022-09-01T00:53:18;3.00;;;1.00;;
23474;SDS011;11910;52.086;21.066;2022-09-01T00:55:44;3.55;;;1.10;;
23474;SDS011;11910;52.086;21.066;2022-09-01T00:58:09;2.35;;;1.10;;
23474;SDS011;11910;52.086;21.066;2022-09-01T01:00:36;2.85;;;1.08;;
23474;SDS011;11910;52.086;21.066;2022-09-01T01:03:08;1.45;;;0.90;;
23474;SDS011;11910;52.086;21.066;2022-09-01T01:05:37;1.85;;;1.10;;
23474;SDS011;11910;52.086;21.066;2022-09-01T01:08:06;2.00;;;1.00;;
23474;SDS011;11910;52.086;21.066;2022-09-01T01:10:36;1.52;;;0.80;;
23474;SDS011;11910;52.086;21.066;2022-09-01T01:13:09;2.20;;;1.10;;
23474;SDS011;11910;52.086;21.066;2022-09-01T01:15:39;3.20;;;1.00;;
23474;SDS011;11910;52.086;21.066;2022-09-01T01:18:12;1.08;;;0.90;;
23474;SDS011;11910;52.086;21.066;2022-09-01T01:20:39;5.07;;;1.20;;
23474;SDS011;11910;52.086;21.066;2022-09-01T01:23:35;1.90;;;0.80;;
23474;SDS011;11910;52.086;21.066;2022-09-01T01:26:08;1.60;;;0.70;;
23474;SDS011;11910;52.086;21.066;2022-09-01T01:28:35;2.42;;;0.90;;
23474;SDS011;11910;52.086;21.066;2022-09-01T01:31:08;3.00;;;1.00;;
23474;SDS011;11910;52.086;21.066;2022-09-01T01:36:10;1.92;;;0.90;;
23474;SDS011;11910;52.086;21.066;2022-09-01T01:38:51;2.10;;;0.90;;
23474;SDS011;11910;52.086;21.066;2022-09-01T01:41:17;2.25;;;0.93;;
23474;SDS011;11910;52.086;21.066;2022-09-01T01:43:43;2.63;;;0.90;;
23474;SDS011;11910;52.086;21.066;2022-09-01T01:46:10;0.93;;;0.77;;
23474;SDS011;11910;52.086;21.066;2022-09-01T01:48:39;1.88;;;1.08;;
23474;SDS011;11910;52.086;21.066;2022-09-01T01:51:07;2.08;;;0.90;;
23474;SDS011;11910;52.086;21.066;2022-09-01T01:53:34;2.00;;;1.05;;
23474;SDS011;11910;52.086;21.066;2022-09-01T01:56:00;3.15;;;1.10;;
23474;SDS011;11910;52.086;21.066;2022-09-01T01:58:26;1.45;;;0.80;;
23474;SDS011;11910;52.086;21.066;2022-09-01T02:00:55;3.35;;;0.90;;
23474;SDS011;11910;52.086;21.066;2022-09-01T02:03:23;2.60;;;1.00;;
23474;SDS011;11910;52.086;21.066;2022-09-01T02:05:51;1.50;;;0.93;;
23474;SDS011;11910;52.086;21.066;2022-09-01T02:08:19;1.55;;;1.00;;
23474;SDS011;11910;52.086;21.066;2022-09-01T02:10:48;4.75;;;1.00;;
23474;SDS011;11910;52.086;21.066;2022-09-01T02:13:17;1.50;;;0.90;;
23474;SDS011;11910;52.086;21.066;2022-09-01T02:15:49;2.92;;;0.88;;
23474;SDS011;11910;52.086;21.066;2022-09-01T02:18:29;1.63;;;0.73;;
23474;SDS011;11910;52.086;21.066;2022-09-01T02:20:59;1.92;;;1.08;;
23474;SDS011;11910;52.086;21.066;2022-09-01T02:23:26;2.55;;;1.08;;
23474;SDS011;11910;52.086;21.066;2022-09-01T02:25:54;1.65;;;0.80;;
23474;SDS011;11910;52.086;21.066;2022-09-01T02:28:22;2.08;;;1.00;;
23474;SDS011;11910;52.086;21.066;2022-09-01T02:30:49;2.10;;;0.90;;
23474;SDS011;11910;52.086;21.066;2022-09-01T02:33:18;1.50;;;0.95;;
23474;SDS011;11910;52.086;21.066;2022-09-01T02:35:47;1.27;;;0.70;;
23474;SDS011;11910;52.086;21.066;2022-09-01T02:38:15;1.70;;;0.98;;
23474;SDS011;11910;52.086;21.066;2022-09-01T02:40:42;2.00;;;1.10;;
23474;SDS011;11910;52.086;21.066;2022-09-01T02:43:11;1.48;;;0.90;;
23474;SDS011;11910;52.086;21.066;2022-09-01T02:45:38;1.45;;;0.80;;
23474;SDS011;11910;52.086;21.066;2022-09-01T02:48:07;1.75;;;0.82;;
23474;SDS011;11910;52.086;21.066;2022-09-01T02:50:35;1.48;;;0.85;;
23474;SDS011;11910;52.086;21.066;2022-09-01T02:53:02;2.40;;;1.00;;
23474;SDS011;11910;52.086;21.066;2022-09-01T02:58:00;1.15;;;0.70;;
23474;SDS011;11910;52.086;21.066;2022-09-01T03:00:26;1.52;;;0.80;;
23474;SDS011;11910;52.086;21.066;2022-09-01T03:02:58;1.42;;;0.75;;
23474;SDS011;11910;52.086;21.066;2022-09-01T03:05:26;3.55;;;1.00;;
23474;SDS011;11910;52.086;21.066;2022-09-01T03:08:01;2.08;;;1.00;;
23474;SDS011;11910;52.086;21.066;2022-09-01T03:10:30;3.80;;;0.90;;
23474;SDS011;11910;52.086;21.066;2022-09-01T03:13:00;6.78;;;1.20;;
23474;SDS011;11910;52.086;21.066;2022-09-01T03:15:34;2.90;;;0.90;;
23474;SDS011;11910;52.086;21.066;2022-09-01T03:18:01;1.88;;;1.15;;
23474;SDS011;11910;52.086;21.066;2022-09-01T03:20:29;1.73;;;1.02;;
23474;SDS011;11910;52.086;21.066;2022-09-01T03:22:58;3.67;;;1.15;;
23474;SDS011;11910;52.086;21.066;2022-09-01T03:25:28;4.00;;;1.83;;
23474;SDS011;11910;52.086;21.066;2022-09-01T03:27:56;3.30;;;1.35;;
23474;SDS011;11910;52.086;21.066;2022-09-01T03:30:27;1.80;;;1.10;;
23474;SDS011;11910;52.086;21.066;2022-09-01T03:32:56;3.30;;;1.00;;
23474;SDS011;11910;52.086;21.066;2022-09-01T03:35:23;4.25;;;1.35;;
23474;SDS011;11910;52.086;21.066;2022-09-01T03:37:49;4.05;;;1.42;;
23474;SDS011;11910;52.086;21.066;2022-09-01T03:40:16;2.42;;;1.27;;
23474;SDS011;11910;52.086;21.066;2022-09-01T03:42:43;3.65;;;1.42;;
23474;SDS011;11910;52.086;21.066;2022-09-01T03:45:09;2.08;;;1.08;;
23474;SDS011;11910;52.086;21.066;2022-09-01T03:47:40;5.20;;;1.02;;
23474;SDS011;11910;52.086;21.066;2022-09-01T03:50:09;3.13;;;1.13;;
23474;SDS011;11910;52.086;21.066;2022-09-01T03:52:47;1.95;;;1.10;;
23474;SDS011;11910;52.086;21.066;2022-09-01T03:55:15;3.90;;;1.17;;
23474;SDS011;11910;52.086;21.066;2022-09-01T03:57:47;3.30;;;1.27;;
23474;SDS011;11910;52.086;21.066;2022-09-01T04:00:18;4.80;;;1.27;;
23474;SDS011;11910;52.086;21.066;2022-09-01T04:02:47;4.10;;;1.10;;
23474;SDS011;11910;52.086;21.066;2022-09-01T04:05:18;2.50;;;1.10;;
23474;SDS011;11910;52.086;21.066;2022-09-01T04:07:45;3.63;;;1.20;;
23474;SDS011;11910;52.086;21.066;2022-09-01T04:10:12;2.72;;;1.50;;
23474;SDS011;11910;52.086;21.066;2022-09-01T04:12:38;2.63;;;1.10;;
23474;SDS011;11910;52.086;21.066;2022-09-01T04:15:04;4.65;;;1.50;;
23474;SDS011;11910;52.086;21.066;2022-09-01T04:17:32;4.55;;;1.70;;
23474;SDS011;11910;52.086;21.066;2022-09-01T04:20:16;2.42;;;1.15;;
23474;SDS011;11910;52.086;21.066;2022-09-01T04:22:44;3.40;;;1.50;;
23474;SDS011;11910;52.086;21.066;2022-09-01T04:25:14;2.72;;;1.35;;
23474;SDS011;11910;52.086;21.066;2022-09-01T04:27:41;2.97;;;1.27;;
23474;SDS011;11910;52.086;21.066;2022-09-01T04:30:09;3.20;;;1.40;;
23474;SDS011;11910;52.086;21.066;2022-09-01T04:32:38;2.38;;;1.15;;
23474;SDS011;11910;52.086;21.066;2022-09-01T04:35:05;2.47;;;1.23;;
23474;SDS011;11910;52.086;21.066;2022-09-01T04:37:31;3.35;;;1.15;;
23474;SDS011;11910;52.086;21.066;2022-09-01T04:40:01;1.77;;;1.40;;
23474;SDS011;11910;52.086;21.066;2022-09-01T04:42:29;4.25;;;1.50;;
23474;SDS011;11910;52.086;21.066;2022-09-01T04:44:56;4.32;;;1.70;;
23474;SDS011;11910;52.086;21.066;2022-09-01T04:47:24;4.75;;;1.60;;
23474;SDS011;11910;52.086;21.066;2022-09-01T04:49:59;3.33;;;1.63;;
23474;SDS011;11910;52.086;21.066;2022-09-01T04:52:26;3.83;;;1.63;;
23474;SDS011;11910;52.086;21.066;2022-09-01T04:54:52;4.40;;;1.98;;
23474;SDS011;11910;52.086;21.066;2022-09-01T04:57:18;3.30;;;1.63;;
23474;SDS011;11910;52.086;21.066;2022-09-01T04:59:47;7.35;;;2.10;;
23474;SDS011;11910;52.086;21.066;2022-09-01T05:02:13;8.25;;;2.10;;
23474;SDS011;11910;52.086;21.066;2022-09-01T05:04:39;7.03;;;2.10;;
23474;SDS011;11910;52.086;21.066;2022-09-01T05:07:10;8.15;;;2.25;;
23474;SDS011;11910;52.086;21.066;2022-09-01T05:09:38;7.35;;;2.30;;
23474;SDS011;11910;52.086;21.066;2022-09-01T05:12:05;6.93;;;2.40;;
23474;SDS011;11910;52.086;21.066;2022-09-01T05:14:40;4.57;;;2.05;;
23474;SDS011;11910;52.086;21.066;2022-09-01T05:17:09;8.40;;;2.33;;
23474;SDS011;11910;52.086;21.066;2022-09-01T05:19:36;8.20;;;1.98;;
23474;SDS011;11910;52.086;21.066;2022-09-01T05:22:05;5.40;;;2.10;;
23474;SDS011;11910;52.086;21.066;2022-09-01T05:24:33;6.15;;;2.35;;
23474;SDS011;11910;52.086;21.066;2022-09-01T05:27:00;8.65;;;2.40;;
23474;SDS011;11910;52.086;21.066;2022-09-01T05:29:28;7.63;;;2.20;;
23474;SDS011;11910;52.086;21.066;2022-09-01T05:31:54;10.73;;;2.60;;
23474;SDS011;11910;52.086;21.066;2022-09-01T05:34:21;8.40;;;2.33;;
23474;SDS011;11910;52.086;21.066;2022-09-01T05:36:51;11.65;;;2.38;;
23474;SDS011;11910;52.086;21.066;2022-09-01T05:39:18;10.57;;;2.30;;
23474;SDS011;11910;52.086;21.066;2022-09-01T05:41:44;9.75;;;2.50;;
23474;SDS011;11910;52.086;21.066;2022-09-01T05:44:13;8.68;;;2.40;;
23474;SDS011;11910;52.086;21.066;2022-09-01T05:46:41;11.27;;;2.55;;
23474;SDS011;11910;52.086;21.066;2022-09-01T05:49:09;11.10;;;2.45;;
23474;SDS011;11910;52.086;21.066;2022-09-01T05:51:44;6.90;;;2.42;;
23474;SDS011;11910;52.086;21.066;2022-09-01T05:54:14;8.23;;;2.00;;
23474;SDS011;11910;52.086;21.066;2022-09-01T05:56:41;5.03;;;2.03;;
23474;SDS011;11910;52.086;21.066;2022-09-01T05:59:08;8.68;;;2.45;;
23474;SDS011;11910;52.086;21.066;2022-09-01T06:01:35;7.30;;;2.45;;
23474;SDS011;11910;52.086;21.066;2022-09-01T06:04:05;5.10;;;1.90;;
23474;SDS011;11910;52.086;21.066;2022-09-01T06:06:42;4.03;;;1.90;;
23474;SDS011;11910;52.086;21.066;2022-09-01T06:09:11;5.28;;;1.70;;
23474;SDS011;11910;52.086;21.066;2022-09-01T06:11:38;5.65;;;2.05;;
23474;SDS011;11910;52.086;21.066;2022-09-01T06:14:05;5.07;;;1.70;;
23474;SDS011;11910;52.086;21.066;2022-09-01T06:16:35;4.15;;;1.48;;
23474;SDS011;11910;52.086;21.066;2022-09-01T06:19:02;6.18;;;1.70;;
23474;SDS011;11910;52.086;21.066;2022-09-01T06:21:29;7.40;;;1.60;;
23474;SDS011;11910;52.086;21.066;2022-09-01T06:23:56;2.90;;;1.30;;
23474;SDS011;11910;52.086;21.066;2022-09-01T06:26:24;2.97;;;1.20;;
23474;SDS011;11910;52.086;21.066;2022-09-01T06:28:51;2.63;;;0.90;;
23474;SDS011;11910;52.086;21.066;2022-09-01T06:31:22;4.05;;;0.80;;
23474;SDS011;11910;52.086;21.066;2022-09-01T06:33:52;3.08;;;1.00;;
23474;SDS011;11910;52.086;21.066;2022-09-01T06:36:20;5.10;;;0.90;;
23474;SDS011;11910;52.086;21.066;2022-09-01T06:38:48;2.55;;;0.80;;
23474;SDS011;11910;52.086;21.066;2022-09-01T06:41:15;4.05;;;1.08;;
23474;SDS011;11910;52.086;21.066;2022-09-01T06:43:43;5.03;;;0.80;;
23474;SDS011;11910;52.086;21.066;2022-09-01T06:46:10;2.20;;;0.85;;
23474;SDS011;11910;52.086;21.066;2022-09-01T06:48:37;4.28;;;0.95;;
23474;SDS011;11910;52.086;21.066;2022-09-01T06:51:04;5.97;;;1.10;;
23474;SDS011;11910;52.086;21.066;2022-09-01T06:53:33;3.40;;;1.20;;
23474;SDS011;11910;52.086;21.066;2022-09-01T06:55:59;4.22;;;1.10;;
23474;SDS011;11910;52.086;21.066;2022-09-01T06:58:24;2.75;;;0.90;;
23474;SDS011;11910;52.086;21.066;2022-09-01T07:00:50;1.98;;;0.80;;
23474;SDS011;11910;52.086;21.066;2022-09-01T07:03:16;2.30;;;0.80;;
23474;SDS011;11910;52.086;21.066;2022-09-01T07:05:43;3.28;;;0.90;;
23474;SDS011;11910;52.086;21.066;2022-09-01T07:08:11;4.03;;;0.77;;
23474;SDS011;11910;52.086;21.066;2022-09-01T07:10:49;3.40;;;0.83;;
23474;SDS011;11910;52.086;21.066;2022-09-01T07:13:19;2.67;;;0.60;;
23474;SDS011;11910;52.086;21.066;2022-09-01T07:15:50;5.25;;;0.70;;
23474;SDS011;11910;52.086;21.066;2022-09-01T07:18:17;3.60;;;0.80;;
23474;SDS011;11910;52.086;21.066;2022-09-01T07:20:50;2.00;;;0.52;;
23474;SDS011;11910;52.086;21.066;2022-09-01T07:23:17;9.20;;;1.05;;
23474;SDS011;11910;52.086;21.066;2022-09-01T07:25:48;3.85;;;1.48;;
23474;SDS011;11910;52.086;21.066;2022-09-01T07:28:19;4.68;;;0.73;;
23474;SDS011;11910;52.086;21.066;2022-09-01T07:30:48;2.88;;;0.73;;
23474;SDS011;11910;52.086;21.066;2022-09-01T07:33:17;1.92;;;0.70;;
23474;SDS011;11910;52.086;21.066;2022-09-01T07:35:47;0.90;;;0.52;;
23474;SDS011;11910;52.086;21.066;2022-09-01T07:38:13;5.65;;;0.90;;
23474;SDS011;11910;52.086;21.066;2022-09-01T07:40:44;5.43;;;0.70;;
23474;SDS011;11910;52.086;21.066;2022-09-01T07:43:15;2.35;;;0.60;;
23474;SDS011;11910;52.086;21.066;2022-09-01T07:45:47;1.08;;;0.50;;
23474;SDS011;11910;52.086;21.066;2022-09-01T07:48:19;1.33;;;0.60;;
23474;SDS011;11910;52.086;21.066;2022-09-01T07:50:48;3.45;;;0.70;;
23474;SDS011;11910;52.086;21.066;2022-09-01T07:53:18;2.67;;;0.60;;
23474;SDS011;11910;52.086;21.066;2022-09-01T07:55:47;2.42;;;0.73;;
23474;SDS011;11910;52.086;21.066;2022-09-01T07:58:15;5.35;;;0.80;;
23474;SDS011;11910;52.086;21.066;2022-09-01T08:00:43;2.70;;;0.50;;
23474;SDS011;11910;52.086;21.066;2022-09-01T08:03:10;2.80;;;0.70;;
23474;SDS011;11910;52.086;21.066;2022-09-01T08:05:37;3.05;;;0.70;;
23474;SDS011;11910;52.086;21.066;2022-09-01T08:08:03;2.70;;;0.50;;
23474;SDS011;11910;52.086;21.066;2022-09-01T08:10:29;3.10;;;0.65;;
23474;SDS011;11910;52.086;21.066;2022-09-01T08:12:55;2.95;;;0.65;;
23474;SDS011;11910;52.086;21.066;2022-09-01T08:15:21;7.97;;;0.88;;
23474;SDS011;11910;52.086;21.066;2022-09-01T08:17:47;9.10;;;0.75;;
23474;SDS011;11910;52.086;21.066;2022-09-01T08:20:13;4.72;;;0.82;;
23474;SDS011;11910;52.086;21.066;2022-09-01T08:22:39;2.67;;;0.40;;
23474;SDS011;11910;52.086;21.066;2022-09-01T08:25:05;4.78;;;0.90;;
23474;SDS011;11910;52.086;21.066;2022-09-01T08:27:32;1.88;;;0.70;;
23474;SDS011;11910;52.086;21.066;2022-09-01T08:30:01;3.83;;;0.70;;
23474;SDS011;11910;52.086;21.066;2022-09-01T08:32:28;8.07;;;0.80;;
23474;SDS011;11910;52.086;21.066;2022-09-01T08:34:54;2.03;;;0.60;;
23474;SDS011;11910;52.086;21.066;2022-09-01T08:37:21;2.22;;;0.60;;
23474;SDS011;11910;52.086;21.066;2022-09-01T08:39:47;4.40;;;0.80;;
23474;SDS011;11910;52.086;21.066;2022-09-01T08:45:03;1.67;;;0.70;;
23474;SDS011;11910;52.086;21.066;2022-09-01T08:47:50;1.65;;;0.55;;
23474;SDS011;11910;52.086;21.066;2022-09-01T08:50:17;1.27;;;0.70;;
23474;SDS011;11910;52.086;21.066;2022-09-01T08:52:46;2.72;;;0.60;;
23474;SDS011;11910;52.086;21.066;2022-09-01T08:55:23;4.10;;;0.73;;
23474;SDS011;11910;52.086;21.066;2022-09-01T08:57:56;3.30;;;0.90;;
23474;SDS011;11910;52.086;21.066;2022-09-01T09:00:28;2.72;;;0.70;;
23474;SDS011;11910;52.086;21.066;2022-09-01T09:10:57;2.67;;;0.50;;
23474;SDS011;11910;52.086;21.066;2022-09-01T09:19:27;1.33;;;0.70;;
23474;SDS011;11910;52.086;21.066;2022-09-01T09:22:03;1.77;;;0.70;;
23474;SDS011;11910;52.086;21.066;2022-09-01T09:32:51;1.45;;;0.60;;
23474;SDS011;11910;52.086;21.066;2022-09-01T09:35:24;3.10;;;0.70;;
23474;SDS011;11910;52.086;21.066;2022-09-01T09:43:34;4.10;;;0.70;;
23474;SDS011;11910;52.086;21.066;2022-09-01T09:49:04;2.63;;;0.70;;
23474;SDS011;11910;52.086;21.066;2022-09-01T09:51:37;1.00;;;0.60;;
23474;SDS011;11910;52.086;21.066;2022-09-01T09:59:45;1.63;;;0.70;;
23474;SDS011;11910;52.086;21.066;2022-09-01T10:04:41;4.10;;;1.00;;
23474;SDS011;11910;52.086;21.066;2022-09-01T10:09:58;2.05;;;0.75;;
23474;SDS011;11910;52.086;21.066;2022-09-01T10:12:27;3.78;;;0.98;;
23474;SDS011;11910;52.086;21.066;2022-09-01T10:15:07;2.22;;;0.52;;
23474;SDS011;11910;52.086;21.066;2022-09-01T10:17:35;2.67;;;0.82;;
23474;SDS011;11910;52.086;21.066;2022-09-01T10:20:17;2.00;;;0.57;;
23474;SDS011;11910;52.086;21.066;2022-09-01T10:22:45;1.92;;;0.80;;
23474;SDS011;11910;52.086;21.066;2022-09-01T10:25:13;1.05;;;0.63;;
23474;SDS011;11910;52.086;21.066;2022-09-01T10:27:46;3.00;;;0.50;;
23474;SDS011;11910;52.086;21.066;2022-09-01T10:30:16;4.63;;;0.98;;
23474;SDS011;11910;52.086;21.066;2022-09-01T10:35:21;2.47;;;0.80;;
23474;SDS011;11910;52.086;21.066;2022-09-01T10:37:50;1.88;;;0.80;;
23474;SDS011;11910;52.086;21.066;2022-09-01T10:42:55;1.60;;;0.60;;
23474;SDS011;11910;52.086;21.066;2022-09-01T10:56:10;1.25;;;0.68;;
23474;SDS011;11910;52.086;21.066;2022-09-01T11:01:14;6.18;;;0.70;;
23474;SDS011;11910;52.086;21.066;2022-09-01T11:03:50;1.77;;;0.57;;
23474;SDS011;11910;52.086;21.066;2022-09-01T11:07:03;4.90;;;0.90;;
23474;SDS011;11910;52.086;21.066;2022-09-01T11:15:01;5.28;;;0.65;;
23474;SDS011;11910;52.086;21.066;2022-09-01T11:20:30;5.25;;;0.70;;
23474;SDS011;11910;52.086;21.066;2022-09-01T11:30:58;3.13;;;0.63;;
23474;SDS011;11910;52.086;21.066;2022-09-01T11:36:31;1.13;;;0.52;;
23474;SDS011;11910;52.086;21.066;2022-09-01T11:44:17;1.85;;;0.60;;
23474;SDS011;11910;52.086;21.066;2022-09-01T11:47:01;2.88;;;0.63;;
23474;SDS011;11910;52.086;21.066;2022-09-01T11:49:30;1.08;;;0.50;;
23474;SDS011;11910;52.086;21.066;2022-09-01T11:51:58;1.35;;;0.50;;
23474;SDS011;11910;52.086;21.066;2022-09-01T11:54:27;2.67;;;0.50;;
23474;SDS011;11910;52.086;21.066;2022-09-01T11:57:15;0.60;;;0.55;;
23474;SDS011;11910;52.086;21.066;2022-09-01T11:59:46;1.25;;;0.70;;
23474;SDS011;11910;52.086;21.066;2022-09-01T12:02:23;1.15;;;0.52;;
23474;SDS011;11910;52.086;21.066;2022-09-01T12:04:55;1.27;;;0.70;;
23474;SDS011;11910;52.086;21.066;2022-09-01T12:07:26;1.75;;;0.63;;
23474;SDS011;11910;52.086;21.066;2022-09-01T12:09:52;5.63;;;0.85;;
23474;SDS011;11910;52.086;21.066;2022-09-01T12:12:26;3.42;;;0.70;;
23474;SDS011;11910;52.086;21.066;2022-09-01T12:14:58;4.45;;;0.77;;
23474;SDS011;11910;52.086;21.066;2022-09-01T12:17:28;4.85;;;0.70;;
23474;SDS011;11910;52.086;21.066;2022-09-01T12:19:53;1.30;;;0.45;;
23474;SDS011;11910;52.086;21.066;2022-09-01T12:22:20;1.00;;;0.68;;
23474;SDS011;11910;52.086;21.066;2022-09-01T12:24:51;1.92;;;0.70;;
23474;SDS011;11910;52.086;21.066;2022-09-01T12:27:18;2.92;;;0.70;;
23474;SDS011;11910;52.086;21.066;2022-09-01T12:29:47;4.43;;;0.70;;
23474;SDS011;11910;52.086;21.066;2022-09-01T12:32:13;4.03;;;0.73;;
23474;SDS011;11910;52.086;21.066;2022-09-01T12:34:56;1.30;;;0.70;;
23474;SDS011;11910;52.086;21.066;2022-09-01T12:37:25;2.78;;;0.60;;
23474;SDS011;11910;52.086;21.066;2022-09-01T12:39:55;1.42;;;0.60;;
23474;SDS011;11910;52.086;21.066;2022-09-01T12:42:29;2.95;;;0.68;;
23474;SDS011;11910;52.086;21.066;2022-09-01T12:50:14;1.27;;;0.65;;
23474;SDS011;11910;52.086;21.066;2022-09-01T12:52:47;0.75;;;0.60;;
23474;SDS011;11910;52.086;21.066;2022-09-01T12:55:22;2.05;;;0.60;;
23474;SDS011;11910;52.086;21.066;2022-09-01T12:57:54;4.13;;;0.80;;
23474;SDS011;11910;52.086;21.066;2022-09-01T13:00:28;1.55;;;0.60;;
23474;SDS011;11910;52.086;21.066;2022-09-01T13:07:59;3.03;;;0.70;;
23474;SDS011;11910;52.086;21.066;2022-09-01T13:10:28;3.08;;;1.02;;
23474;SDS011;11910;52.086;21.066;2022-09-01T13:12:57;3.35;;;0.80;;
23474;SDS011;11910;52.086;21.066;2022-09-01T13:15:23;3.88;;;0.85;;
23474;SDS011;11910;52.086;21.066;2022-09-01T13:17:50;2.53;;;0.60;;
23474;SDS011;11910;52.086;21.066;2022-09-01T13:20:16;2.38;;;0.70;;
23474;SDS011;11910;52.086;21.066;2022-09-01T13:22:42;2.03;;;0.65;;
23474;SDS011;11910;52.086;21.066;2022-09-01T13:25:10;0.77;;;0.50;;
23474;SDS011;11910;52.086;21.066;2022-09-01T13:27:37;2.50;;;0.55;;
23474;SDS011;11910;52.086;21.066;2022-09-01T13:30:08;4.47;;;0.60;;
23474;SDS011;11910;52.086;21.066;2022-09-01T13:32:35;2.72;;;0.70;;
23474;SDS011;11910;52.086;21.066;2022-09-01T13:35:01;0.93;;;0.40;;
23474;SDS011;11910;52.086;21.066;2022-09-01T13:37:27;1.92;;;0.50;;
23474;SDS011;11910;52.086;21.066;2022-09-01T13:39:53;1.02;;;0.50;;
23474;SDS011;11910;52.086;21.066;2022-09-01T13:42:18;1.65;;;0.65;;
23474;SDS011;11910;52.086;21.066;2022-09-01T13:44:44;2.25;;;0.70;;
23474;SDS011;11910;52.086;21.066;2022-09-01T13:47:11;1.65;;;0.60;;
23474;SDS011;11910;52.086;21.066;2022-09-01T13:49:37;3.90;;;0.80;;
23474;SDS011;11910;52.086;21.066;2022-09-01T13:52:03;3.75;;;0.70;;
23474;SDS011;11910;52.086;21.066;2022-09-01T13:54:29;2.83;;;0.60;;
23474;SDS011;11910;52.086;21.066;2022-09-01T13:56:54;1.67;;;0.60;;
23474;SDS011;11910;52.086;21.066;2022-09-01T13:59:20;1.80;;;0.68;;
23474;SDS011;11910;52.086;21.066;2022-09-01T14:01:46;0.95;;;0.50;;
23474;SDS011;11910;52.086;21.066;2022-09-01T14:04:12;2.08;;;0.40;;
23474;SDS011;11910;52.086;21.066;2022-09-01T14:06:41;1.92;;;0.80;;
23474;SDS011;11910;52.086;21.066;2022-09-01T14:09:11;1.65;;;0.70;;
23474;SDS011;11910;52.086;21.066;2022-09-01T14:11:39;1.30;;;0.63;;
23474;SDS011;11910;52.086;21.066;2022-09-01T14:14:05;1.02;;;0.55;;
23474;SDS011;11910;52.086;21.066;2022-09-01T14:16:31;4.45;;;0.80;;
23474;SDS011;11910;52.086;21.066;2022-09-01T14:18:57;2.70;;;0.60;;
23474;SDS011;11910;52.086;21.066;2022-09-01T14:21:23;2.67;;;0.80;;
23474;SDS011;11910;52.086;21.066;2022-09-01T14:23:50;7.60;;;0.77;;
23474;SDS011;11910;52.086;21.066;2022-09-01T14:26:16;3.15;;;0.85;;
23474;SDS011;11910;52.086;21.066;2022-09-01T14:28:42;3.67;;;0.60;;
23474;SDS011;11910;52.086;21.066;2022-09-01T14:31:10;5.38;;;0.98;;
23474;SDS011;11910;52.086;21.066;2022-09-01T14:33:38;3.40;;;0.70;;
23474;SDS011;11910;52.086;21.066;2022-09-01T14:36:05;5.57;;;0.90;;
23474;SDS011;11910;52.086;21.066;2022-09-01T14:38:32;2.03;;;0.65;;
23474;SDS011;11910;52.086;21.066;2022-09-01T14:40:59;0.50;;;0.50;;
23474;SDS011;11910;52.086;21.066;2022-09-01T14:43:25;6.25;;;1.08;;
23474;SDS011;11910;52.086;21.066;2022-09-01T14:46:00;2.03;;;0.60;;
23474;SDS011;11910;52.086;21.066;2022-09-01T14:48:30;1.83;;;0.50;;
23474;SDS011;11910;52.086;21.066;2022-09-01T14:50:56;2.35;;;0.73;;
23474;SDS011;11910;52.086;21.066;2022-09-01T14:53:23;3.92;;;0.70;;
23474;SDS011;11910;52.086;21.066;2022-09-01T14:55:48;1.50;;;0.80;;
23474;SDS011;11910;52.086;21.066;2022-09-01T14:58:14;7.80;;;0.98;;
23474;SDS011;11910;52.086;21.066;2022-09-01T15:00:41;1.63;;;0.50;;
23474;SDS011;11910;52.086;21.066;2022-09-01T15:03:09;6.38;;;0.70;;
23474;SDS011;11910;52.086;21.066;2022-09-01T15:05:35;6.93;;;0.80;;
23474;SDS011;11910;52.086;21.066;2022-09-01T15:08:02;5.28;;;0.70;;
23474;SDS011;11910;52.086;21.066;2022-09-01T15:10:27;12.55;;;1.15;;
23474;SDS011;11910;52.086;21.066;2022-09-01T15:12:54;5.30;;;0.80;;
23474;SDS011;11910;52.086;21.066;2022-09-01T15:15:21;2.47;;;0.60;;
23474;SDS011;11910;52.086;21.066;2022-09-01T15:17:47;2.05;;;0.65;;
23474;SDS011;11910;52.086;21.066;2022-09-01T15:20:13;6.35;;;0.98;;
23474;SDS011;11910;52.086;21.066;2022-09-01T15:22:57;2.60;;;0.80;;
23474;SDS011;11910;52.086;21.066;2022-09-01T15:25:23;11.18;;;2.20;;
23474;SDS011;11910;52.086;21.066;2022-09-01T15:27:49;1.58;;;0.60;;
23474;SDS011;11910;52.086;21.066;2022-09-01T15:30:14;2.88;;;0.90;;
23474;SDS011;11910;52.086;21.066;2022-09-01T15:32:42;1.70;;;0.50;;
23474;SDS011;11910;52.086;21.066;2022-09-01T15:35:09;0.55;;;0.40;;
23474;SDS011;11910;52.086;21.066;2022-09-01T15:37:35;2.25;;;0.77;;
23474;SDS011;11910;52.086;21.066;2022-09-01T15:40:01;1.63;;;0.70;;
23474;SDS011;11910;52.086;21.066;2022-09-01T15:42:28;4.72;;;0.50;;
23474;SDS011;11910;52.086;21.066;2022-09-01T15:44:53;6.75;;;1.27;;
23474;SDS011;11910;52.086;21.066;2022-09-01T15:47:19;1.75;;;0.60;;
23474;SDS011;11910;52.086;21.066;2022-09-01T15:49:45;0.80;;;0.50;;
23474;SDS011;11910;52.086;21.066;2022-09-01T15:52:10;3.42;;;0.40;;
23474;SDS011;11910;52.086;21.066;2022-09-01T15:54:36;5.00;;;0.47;;
23474;SDS011;11910;52.086;21.066;2022-09-01T15:57:03;1.48;;;0.40;;
23474;SDS011;11910;52.086;21.066;2022-09-01T15:59:30;2.38;;;0.40;;
23474;SDS011;11910;52.086;21.066;2022-09-01T16:01:56;2.47;;;0.60;;
23474;SDS011;11910;52.086;21.066;2022-09-01T16:04:22;4.38;;;1.08;;
23474;SDS011;11910;52.086;21.066;2022-09-01T16:06:48;2.38;;;0.55;;
23474;SDS011;11910;52.086;21.066;2022-09-01T16:09:15;0.93;;;0.50;;
23474;SDS011;11910;52.086;21.066;2022-09-01T16:11:42;3.40;;;0.65;;
23474;SDS011;11910;52.086;21.066;2022-09-01T16:14:09;2.30;;;0.50;;
23474;SDS011;11910;52.086;21.066;2022-09-01T16:19:32;2.70;;;0.50;;
23474;SDS011;11910;52.086;21.066;2022-09-01T16:22:10;2.35;;;0.65;;
23474;SDS011;11910;52.086;21.066;2022-09-01T16:24:44;0.70;;;0.60;;
23474;SDS011;11910;52.086;21.066;2022-09-01T16:27:14;1.30;;;0.60;;
23474;SDS011;11910;52.086;21.066;2022-09-01T16:32:10;1.98;;;0.50;;